ESNN/SDL METAR and TAF weather

Enter ICAO airport designator
Station Type Date Time Source
ESNN METAR 2019/08/22 02:20 UTC NOAA

ESNN 220220Z AUTO VRB01KT 9999 NCD 07/06 Q1021


Station Type Date Time Source
ESNN Decoded METAR 2019/08/22 02:20 UTC NOAA

Station name not available
Aug 21, 2019 - 10:20 PM EDT / 2019.08.22 0220 UTC
Wind: Variable at 1 MPH (1 KT):0
Visibility: greater than 7 mile(s):0
Temperature: 44 F (7 C)
Dew Point: 42 F (6 C)
Relative Humidity: 93%
Pressure (altimeter): 30.15 in. Hg (1021 hPa)
ob: ESNN 220220Z AUTO VRB01KT 9999 NCD 07/06 Q1021
cycle: 2

Station Type Date Time Source
ESNN TAF 2016/05/29 09:33 UTC NOAA

TAF TAF ESNN 290830Z 2909/3018 07006KT 9999 SCT045
BECMG 2913/2915 14010KT

Example: see airport list